Time;durP1;ratioP1;P1;durP2;ratioP2;P2;SDS_P1;SDS_P2;PMS_P1;PMS_P2;Temp;Humidity;BMP_temperature;BMP_pressure;BME280_temperature;BME280_humidity;BME280_pressure;Samples;Min_cycle;Max_cycle;Signal;HPM_P1;HPM_P2
2022/01/23 00:02:22;;;;;;;37.40;19.38;;;;;;;;;;6225514;22;20015;-84
2022/01/23 00:04:48;;;;;;;44.83;20.20;;;;;;;;;;6225525;22;20020;-84
2022/01/23 00:07:15;;;;;;;48.72;21.73;;;;;;;;;;6224276;22;20018;-84
2022/01/23 00:09:41;;;;;;;46.13;20.77;;;;;;;;;;6224318;22;20018;-84
2022/01/23 00:12:15;;;;;;;42.75;19.05;;;;;;;;;;6223490;22;20095;-84
2022/01/23 00:17:32;;;;;;;37.70;19.63;;;;;;;;;;6252985;22;20084;-85
2022/01/23 00:19:58;;;;;;;46.45;19.70;;;;;;;;;;6249880;22;20011;-84
2022/01/23 00:22:41;;;;;;;35.60;18.83;;;;;;;;;;6222464;22;20071;-84
2022/01/23 00:30:40;;;;;;;38.13;19.65;;;;;;;;;;6251797;22;20011;-84
2022/01/23 00:33:06;;;;;;;42.00;20.63;;;;;;;;;;6222201;22;20015;-84
2022/01/23 00:35:33;;;;;;;45.50;21.48;;;;;;;;;;6222387;22;20063;-84
2022/01/23 00:38:00;;;;;;;47.08;21.20;;;;;;;;;;6221931;22;20015;-84
2022/01/23 00:40:27;;;;;;;49.80;22.35;;;;;;;;;;6221309;22;20669;-84
2022/01/23 00:42:54;;;;;;;45.90;20.90;;;;;;;;;;6220554;22;20015;-84
2022/01/23 00:47:59;;;;;;;48.38;22.48;;;;;;;;;;6248522;22;20475;-84
2022/01/23 00:50:25;;;;;;;46.97;21.15;;;;;;;;;;6223455;22;20020;-84
2022/01/23 00:52:50;;;;;;;46.63;22.58;;;;;;;;;;6246502;22;20012;-85
2022/01/23 00:55:17;;;;;;;49.08;23.45;;;;;;;;;;6222507;22;20031;-84
2022/01/23 00:57:42;;;;;;;47.67;23.02;;;;;;;;;;6247497;22;20012;-84
2022/01/23 01:00:09;;;;;;;36.80;19.65;;;;;;;;;;6222524;22;20352;-84
2022/01/23 01:02:35;;;;;;;37.70;20.30;;;;;;;;;;6222058;22;20331;-84
2022/01/23 01:05:01;;;;;;;42.22;21.17;;;;;;;;;;6221441;22;20107;-84
2022/01/23 01:07:27;;;;;;;38.67;21.95;;;;;;;;;;6222032;22;20011;-83
2022/01/23 01:09:58;;;;;;;41.92;20.98;;;;;;;;;;6220850;22;20438;-84
2022/01/23 01:12:28;;;;;;;44.42;23.20;;;;;;;;;;6222001;22;20069;-84
2022/01/23 01:15:12;;;;;;;39.78;20.75;;;;;;;;;;6222867;22;20024;-84
2022/01/23 01:30:11;;;;;;;39.58;19.60;;;;;;;;;;6225442;22;20396;-84
2022/01/23 01:31:35;;;;;;;33.05;18.33;;;;;;;;;;6248658;22;20455;-84
2022/01/23 01:34:38;;;;;;;37.67;17.83;;;;;;;;;;6222612;22;20763;-84
2022/01/23 01:36:53;;;;;;;30.73;16.42;;;;;;;;;;6246129;22;20016;-84
2022/01/23 01:39:23;;;;;;;31.00;16.98;;;;;;;;;;6220438;22;20515;-84
2022/01/23 01:41:49;;;;;;;32.78;17.13;;;;;;;;;;6217618;22;20095;-84
2022/01/23 01:44:16;;;;;;;33.55;17.35;;;;;;;;;;6218265;22;20472;-84
2022/01/23 01:46:41;;;;;;;34.17;16.58;;;;;;;;;;6219733;22;20708;-84
2022/01/23 01:49:08;;;;;;;27.42;15.32;;;;;;;;;;6218851;22;20067;-84
2022/01/23 01:51:34;;;;;;;28.33;14.90;;;;;;;;;;6244320;22;20026;-84
2022/01/23 01:54:10;;;;;;;30.65;16.00;;;;;;;;;;6219938;22;20631;-84
2022/01/23 01:56:47;;;;;;;26.88;15.13;;;;;;;;;;6221313;22;20035;-84
2022/01/23 01:59:22;;;;;;;26.38;14.70;;;;;;;;;;6221225;22;20413;-84
2022/01/23 02:09:32;;;;;;;22.05;12.65;;;;;;;;;;6250354;22;20550;-84
2022/01/23 02:55:44;;;;;;;15.18;8.85;;;;;;;;;;6249917;22;20468;-84
2022/01/23 02:58:12;;;;;;;16.38;9.18;;;;;;;;;;6245937;22;20435;-84
2022/01/23 03:00:50;;;;;;;18.05;9.45;;;;;;;;;;6220564;22;20469;-84
2022/01/23 03:03:23;;;;;;;16.13;7.68;;;;;;;;;;6222082;22;20038;-84
2022/01/23 03:06:16;;;;;;;15.23;8.70;;;;;;;;;;6247069;22;20099;-84
2022/01/23 03:14:38;;;;;;;13.40;8.18;;;;;;;;;;6186734;22;20024;-83
2022/01/23 03:25:52;;;;;;;12.20;7.55;;;;;;;;;;6249869;22;20023;-84
2022/01/23 03:30:51;;;;;;;13.98;8.15;;;;;;;;;;6246072;22;20444;-83
2022/01/23 03:33:17;;;;;;;13.00;8.02;;;;;;;;;;6221131;22;20016;-84
2022/01/23 03:35:42;;;;;;;11.07;7.03;;;;;;;;;;6220667;22;20019;-83
2022/01/23 03:38:08;;;;;;;11.68;7.43;;;;;;;;;;6221871;22;20089;-84
2022/01/23 03:40:34;;;;;;;14.40;8.00;;;;;;;;;;6220612;22;20028;-84
2022/01/23 03:43:09;;;;;;;14.35;7.97;;;;;;;;;;6220601;22;20460;-84
2022/01/23 03:50:47;;;;;;;11.13;7.13;;;;;;;;;;6247096;22;20090;-85
2022/01/23 03:53:13;;;;;;;14.02;7.57;;;;;;;;;;6243993;22;20027;-85
2022/01/23 03:55:39;;;;;;;10.30;7.20;;;;;;;;;;6219616;22;20015;-85
2022/01/23 03:58:05;;;;;;;11.82;7.72;;;;;;;;;;6219453;22;20429;-85
2022/01/23 04:00:31;;;;;;;10.50;6.85;;;;;;;;;;6218478;22;20038;-86
2022/01/23 04:02:57;;;;;;;10.98;6.60;;;;;;;;;;6217407;22;20015;-86
2022/01/23 04:05:23;;;;;;;10.32;7.07;;;;;;;;;;6218026;22;20015;-85
2022/01/23 04:07:48;;;;;;;9.70;6.65;;;;;;;;;;6218261;22;20094;-85
2022/01/23 04:10:17;;;;;;;9.30;5.82;;;;;;;;;;6219101;22;20019;-85
2022/01/23 04:18:55;;;;;;;10.55;6.30;;;;;;;;;;6246636;22;20019;-85
2022/01/23 04:32:19;;;;;;;8.73;5.45;;;;;;;;;;6269925;22;20014;-85
2022/01/23 04:45:50;;;;;;;9.30;6.18;;;;;;;;;;6247092;22;20018;-86
2022/01/23 05:02:13;;;;;;;8.27;5.22;;;;;;;;;;6246864;22;20050;-85
2022/01/23 05:04:40;;;;;;;9.95;5.78;;;;;;;;;;6221028;22;20081;-86
2022/01/23 05:07:10;;;;;;;10.07;6.18;;;;;;;;;;6243659;22;20019;-86
2022/01/23 05:09:35;;;;;;;9.43;5.45;;;;;;;;;;6244086;22;20020;-85
2022/01/23 05:12:04;;;;;;;10.57;6.32;;;;;;;;;;6217404;22;20016;-86
2022/01/23 05:14:32;;;;;;;8.35;5.60;;;;;;;;;;6216619;22;20035;-85
2022/01/23 05:16:58;;;;;;;9.45;5.85;;;;;;;;;;6244013;22;20735;-86
2022/01/23 05:19:24;;;;;;;9.00;6.20;;;;;;;;;;6216572;22;20475;-86
2022/01/23 05:22:05;;;;;;;9.20;6.15;;;;;;;;;;6217880;22;20547;-85
2022/01/23 05:24:38;;;;;;;10.05;6.13;;;;;;;;;;6220595;22;20089;-86
2022/01/23 05:27:07;;;;;;;8.60;5.45;;;;;;;;;;6219739;22;20012;-85
2022/01/23 05:29:33;;;;;;;9.55;6.40;;;;;;;;;;6217797;22;20023;-85
2022/01/23 05:31:59;;;;;;;9.65;6.20;;;;;;;;;;6216992;22;20007;-85
2022/01/23 05:34:26;;;;;;;9.70;6.28;;;;;;;;;;6221245;22;20054;-86
2022/01/23 05:36:52;;;;;;;8.25;5.60;;;;;;;;;;6243508;22;20027;-85
2022/01/23 05:39:21;;;;;;;10.98;6.28;;;;;;;;;;6216951;22;20023;-85
2022/01/23 05:41:47;;;;;;;9.32;5.82;;;;;;;;;;6218011;22;20015;-85
2022/01/23 05:44:13;;;;;;;9.90;6.93;;;;;;;;;;6218129;22;20094;-86
2022/01/23 05:46:38;;;;;;;9.30;6.28;;;;;;;;;;6219256;22;20018;-85
2022/01/23 05:49:05;;;;;;;9.48;6.57;;;;;;;;;;6219025;22;20024;-85
2022/01/23 05:51:31;;;;;;;10.63;6.13;;;;;;;;;;6218593;22;20103;-86
2022/01/23 05:53:57;;;;;;;10.35;5.93;;;;;;;;;;6219346;22;20411;-85
2022/01/23 05:56:22;;;;;;;10.25;6.53;;;;;;;;;;6244274;22;20085;-85
2022/01/23 05:58:48;;;;;;;9.82;6.28;;;;;;;;;;6219425;22;20074;-85
2022/01/23 06:01:14;;;;;;;10.95;6.65;;;;;;;;;;6219720;22;20020;-85
2022/01/23 06:03:40;;;;;;;9.55;6.45;;;;;;;;;;6219027;22;20020;-86
2022/01/23 06:06:05;;;;;;;9.70;6.32;;;;;;;;;;6219716;22;20020;-85
2022/01/23 06:08:32;;;;;;;11.65;7.20;;;;;;;;;;6244295;22;20449;-86
2022/01/23 06:10:57;;;;;;;13.00;6.97;;;;;;;;;;6218946;22;20091;-85
2022/01/23 06:13:25;;;;;;;13.85;7.47;;;;;;;;;;6219442;22;20099;-85
2022/01/23 06:15:52;;;;;;;12.35;7.50;;;;;;;;;;6219452;22;20066;-85
2022/01/23 06:18:18;;;;;;;12.38;8.05;;;;;;;;;;6218603;22;20023;-85
2022/01/23 06:20:43;;;;;;;16.17;8.85;;;;;;;;;;6219785;22;20019;-86
2022/01/23 06:23:09;;;;;;;19.75;8.98;;;;;;;;;;6219158;22;20018;-85
2022/01/23 06:25:37;;;;;;;17.50;9.25;;;;;;;;;;6219409;22;20024;-85
2022/01/23 06:28:06;;;;;;;16.15;8.90;;;;;;;;;;6219458;22;20004;-85
2022/01/23 06:30:33;;;;;;;14.52;8.52;;;;;;;;;;6218180;22;20019;-85
2022/01/23 06:33:00;;;;;;;14.63;8.70;;;;;;;;;;6218950;22;20323;-85
2022/01/23 06:35:25;;;;;;;18.60;8.98;;;;;;;;;;6217910;22;20022;-86
2022/01/23 06:37:51;;;;;;;24.27;14.80;;;;;;;;;;6218456;22;20099;-86
2022/01/23 06:40:17;;;;;;;29.88;15.07;;;;;;;;;;6218994;22;20445;-85
2022/01/23 06:42:43;;;;;;;19.60;12.55;;;;;;;;;;6219430;22;20019;-85
2022/01/23 06:45:09;;;;;;;16.40;10.27;;;;;;;;;;6218790;22;20018;-85
2022/01/23 06:47:35;;;;;;;16.75;10.70;;;;;;;;;;6218890;22;20086;-85
2022/01/23 06:50:00;;;;;;;15.50;9.95;;;;;;;;;;6218477;22;20040;-85
2022/01/23 06:52:26;;;;;;;16.35;10.23;;;;;;;;;;6218354;22;20023;-85
2022/01/23 06:54:52;;;;;;;17.42;10.25;;;;;;;;;;6218919;22;20020;-85
2022/01/23 06:57:17;;;;;;;18.92;10.15;;;;;;;;;;6244205;22;20475;-85
2022/01/23 06:59:43;;;;;;;16.38;9.57;;;;;;;;;;6219400;22;20377;-85
2022/01/23 07:02:09;;;;;;;15.85;10.63;;;;;;;;;;6218553;22;20043;-86
2022/01/23 07:04:35;;;;;;;15.70;9.77;;;;;;;;;;6218090;22;20081;-85
2022/01/23 07:07:01;;;;;;;18.33;10.40;;;;;;;;;;6218518;22;20020;-85
2022/01/23 07:09:27;;;;;;;15.75;9.70;;;;;;;;;;6218730;22;20729;-85
2022/01/23 07:11:53;;;;;;;13.70;9.40;;;;;;;;;;6220878;22;20003;-85
2022/01/23 07:14:18;;;;;;;15.73;8.85;;;;;;;;;;6219059;22;20031;-85
2022/01/23 07:16:44;;;;;;;18.60;9.82;;;;;;;;;;6218114;22;20023;-86
2022/01/23 07:19:10;;;;;;;17.23;10.38;;;;;;;;;;6242865;22;20441;-86
2022/01/23 07:21:36;;;;;;;15.85;9.73;;;;;;;;;;6218372;22;20051;-85
2022/01/23 07:24:01;;;;;;;14.98;9.02;;;;;;;;;;6218327;22;20025;-85
2022/01/23 07:26:28;;;;;;;15.40;9.82;;;;;;;;;;6243124;22;20054;-85
2022/01/23 07:28:57;;;;;;;17.30;10.05;;;;;;;;;;6243784;22;20445;-85
2022/01/23 07:34:02;;;;;;;15.80;9.07;;;;;;;;;;6245531;22;20400;-86
2022/01/23 07:36:28;;;;;;;14.90;9.73;;;;;;;;;;6217497;22;20242;-85
2022/01/23 07:38:54;;;;;;;15.60;9.73;;;;;;;;;;6217211;22;20020;-85
2022/01/23 07:41:20;;;;;;;12.75;8.50;;;;;;;;;;6217117;22;20039;-85
2022/01/23 07:43:46;;;;;;;13.70;9.32;;;;;;;;;;6243459;22;20022;-85
2022/01/23 07:46:12;;;;;;;12.57;8.50;;;;;;;;;;6217880;22;20298;-86
2022/01/23 07:48:37;;;;;;;15.45;8.85;;;;;;;;;;6216938;22;20039;-83
2022/01/23 07:51:03;;;;;;;14.70;9.18;;;;;;;;;;6217873;22;20103;-83
2022/01/23 07:53:29;;;;;;;15.57;9.98;;;;;;;;;;6240841;22;20027;-84
2022/01/23 07:55:55;;;;;;;14.40;8.98;;;;;;;;;;6241253;22;20523;-84
2022/01/23 07:58:20;;;;;;;17.42;10.00;;;;;;;;;;6216120;22;20052;-84
2022/01/23 08:00:47;;;;;;;15.50;10.07;;;;;;;;;;6217150;22;20097;-84
2022/01/23 08:03:13;;;;;;;15.98;10.57;;;;;;;;;;6243437;22;20034;-84
2022/01/23 08:05:39;;;;;;;13.18;9.68;;;;;;;;;;6216516;22;20576;-84
2022/01/23 08:08:05;;;;;;;14.60;10.02;;;;;;;;;;6241940;22;20015;-84
2022/01/23 08:10:31;;;;;;;13.98;10.65;;;;;;;;;;6216946;22;20461;-84
2022/01/23 08:12:57;;;;;;;15.43;11.52;;;;;;;;;;6243193;22;20018;-84
2022/01/23 08:15:23;;;;;;;17.45;11.15;;;;;;;;;;6216798;22;20446;-84
2022/01/23 08:17:48;;;;;;;17.35;12.30;;;;;;;;;;6215578;22;20015;-84
2022/01/23 08:20:14;;;;;;;15.30;10.82;;;;;;;;;;6216653;22;20012;-84
2022/01/23 08:22:40;;;;;;;15.70;13.15;;;;;;;;;;6215248;22;20024;-84
2022/01/23 08:25:06;;;;;;;16.15;10.20;;;;;;;;;;6240435;22;20042;-84
2022/01/23 08:27:32;;;;;;;13.73;11.27;;;;;;;;;;6239795;22;20099;-84
2022/01/23 08:29:58;;;;;;;15.52;10.40;;;;;;;;;;6214478;22;20008;-84
2022/01/23 08:32:24;;;;;;;15.02;10.25;;;;;;;;;;6239769;22;20462;-84
2022/01/23 08:34:50;;;;;;;14.15;9.68;;;;;;;;;;6216218;22;20065;-84
2022/01/23 08:37:16;;;;;;;14.30;10.07;;;;;;;;;;6242214;22;20036;-84
2022/01/23 08:39:42;;;;;;;16.55;11.25;;;;;;;;;;6242148;22;20416;-84
2022/01/23 08:42:13;;;;;;;12.88;8.80;;;;;;;;;;6240930;22;20073;-84
2022/01/23 08:44:39;;;;;;;11.63;8.15;;;;;;;;;;6241117;22;20042;-84
2022/01/23 08:47:06;;;;;;;15.00;9.70;;;;;;;;;;6241484;22;20026;-84
2022/01/23 08:49:33;;;;;;;11.23;8.27;;;;;;;;;;6215376;22;20031;-83
2022/01/23 08:51:59;;;;;;;11.93;7.65;;;;;;;;;;6215725;22;20082;-84
2022/01/23 08:54:27;;;;;;;12.88;8.75;;;;;;;;;;6216470;22;20510;-84
2022/01/23 08:56:53;;;;;;;14.32;8.38;;;;;;;;;;6213243;22;20390;-84
2022/01/23 08:59:18;;;;;;;11.15;7.82;;;;;;;;;;6215365;22;20058;-84
2022/01/23 09:01:44;;;;;;;10.10;6.40;;;;;;;;;;6216185;22;20043;-84
2022/01/23 09:04:15;;;;;;;9.85;6.85;;;;;;;;;;6215976;22;20031;-84
2022/01/23 09:06:40;;;;;;;10.65;6.63;;;;;;;;;;6217719;22;20107;-84
2022/01/23 09:09:11;;;;;;;9.13;6.82;;;;;;;;;;6217089;22;20118;-84
2022/01/23 09:14:10;;;;;;;12.70;6.50;;;;;;;;;;6268163;22;20165;-84
2022/01/23 09:16:41;;;;;;;9.55;6.55;;;;;;;;;;6220082;22;20030;-84
2022/01/23 09:19:07;;;;;;;8.55;6.05;;;;;;;;;;6219308;22;20387;-85
2022/01/23 09:21:33;;;;;;;9.95;6.05;;;;;;;;;;6218144;22;20012;-85
2022/01/23 09:23:59;;;;;;;8.82;6.22;;;;;;;;;;6219222;22;20525;-85
2022/01/23 09:26:25;;;;;;;7.25;5.72;;;;;;;;;;6219102;22;20026;-84
2022/01/23 09:28:54;;;;;;;8.52;6.90;;;;;;;;;;6244801;22;20014;-85
2022/01/23 09:31:45;;;;;;;9.63;6.28;;;;;;;;;;6221332;22;20073;-85
2022/01/23 09:34:12;;;;;;;9.32;5.82;;;;;;;;;;6226430;22;20016;-85
2022/01/23 09:36:37;;;;;;;6.53;5.47;;;;;;;;;;6219616;22;20023;-84
2022/01/23 09:39:04;;;;;;;8.63;5.38;;;;;;;;;;6243226;22;20038;-85
2022/01/23 09:41:31;;;;;;;8.18;6.00;;;;;;;;;;6218567;22;20020;-84
2022/01/23 09:44:00;;;;;;;10.65;5.45;;;;;;;;;;6244332;22;20402;-85
2022/01/23 09:46:26;;;;;;;7.97;5.65;;;;;;;;;;6219357;22;20083;-85
2022/01/23 09:48:54;;;;;;;8.18;5.75;;;;;;;;;;6244384;22;20333;-84
2022/01/23 09:51:22;;;;;;;8.65;5.03;;;;;;;;;;6243823;22;20024;-84
2022/01/23 09:53:52;;;;;;;9.27;6.20;;;;;;;;;;6219603;22;20020;-84
2022/01/23 09:56:26;;;;;;;7.13;5.15;;;;;;;;;;6244124;22;20023;-85
2022/01/23 09:58:52;;;;;;;10.27;6.55;;;;;;;;;;6245157;22;20038;-85
2022/01/23 10:01:18;;;;;;;7.47;5.90;;;;;;;;;;6215771;22;20310;-85
2022/01/23 10:03:44;;;;;;;7.55;5.85;;;;;;;;;;6218782;22;20070;-85
2022/01/23 10:06:11;;;;;;;7.60;5.82;;;;;;;;;;6218958;22;20345;-84
2022/01/23 10:08:37;;;;;;;7.78;5.15;;;;;;;;;;6217842;22;20026;-85
2022/01/23 10:11:08;;;;;;;8.25;5.65;;;;;;;;;;6243437;22;20015;-84
2022/01/23 10:13:34;;;;;;;7.80;5.93;;;;;;;;;;6220068;22;20083;-85
2022/01/23 10:16:00;;;;;;;9.05;5.78;;;;;;;;;;6217936;22;20022;-85
2022/01/23 10:18:26;;;;;;;10.00;5.93;;;;;;;;;;6217972;22;20039;-85
2022/01/23 10:20:52;;;;;;;8.38;5.65;;;;;;;;;;6218472;22;20041;-85
2022/01/23 10:23:18;;;;;;;7.22;5.35;;;;;;;;;;6245719;22;20019;-85
2022/01/23 10:25:46;;;;;;;7.32;5.40;;;;;;;;;;6243495;22;20331;-85
2022/01/23 10:28:20;;;;;;;5.65;4.85;;;;;;;;;;6219666;22;20046;-84
2022/01/23 10:30:56;;;;;;;6.07;4.60;;;;;;;;;;6220160;22;20083;-85
2022/01/23 10:33:29;;;;;;;4.93;4.00;;;;;;;;;;6218814;22;20091;-85
2022/01/23 10:36:08;;;;;;;5.15;4.22;;;;;;;;;;6218529;22;20026;-84
2022/01/23 10:38:40;;;;;;;5.13;4.43;;;;;;;;;;6243598;22;20259;-85
2022/01/23 10:50:03;;;;;;;8.52;4.00;;;;;;;;;;6243969;22;20357;-84
2022/01/23 10:52:40;;;;;;;6.57;4.55;;;;;;;;;;6218987;22;20024;-84
2022/01/23 10:55:11;;;;;;;7.72;4.88;;;;;;;;;;6218087;22;20456;-84
2022/01/23 10:57:45;;;;;;;7.25;4.88;;;;;;;;;;6243968;22;20024;-84
2022/01/23 11:00:31;;;;;;;5.63;4.55;;;;;;;;;;6218376;22;20012;-85
2022/01/23 11:02:59;;;;;;;9.40;5.65;;;;;;;;;;6242975;22;20523;-85
2022/01/23 11:05:41;;;;;;;6.78;4.95;;;;;;;;;;6217902;22;20074;-85
2022/01/23 11:08:21;;;;;;;6.28;4.80;;;;;;;;;;6219929;22;20023;-84
2022/01/23 11:10:58;;;;;;;5.47;4.68;;;;;;;;;;6215414;22;20347;-85
2022/01/23 11:19:17;;;;;;;7.07;5.25;;;;;;;;;;6247907;22;20038;-85
2022/01/23 11:21:43;;;;;;;5.60;4.32;;;;;;;;;;6217454;22;20449;-85
2022/01/23 11:24:09;;;;;;;8.43;5.95;;;;;;;;;;6218380;22;20011;-84
2022/01/23 11:26:35;;;;;;;15.70;11.00;;;;;;;;;;6217397;22;20090;-84
2022/01/23 11:29:18;;;;;;;14.98;10.85;;;;;;;;;;6218692;22;20043;-84
2022/01/23 11:31:44;;;;;;;10.95;8.00;;;;;;;;;;6218288;22;20020;-84
2022/01/23 11:34:12;;;;;;;17.55;12.63;;;;;;;;;;6216965;22;20071;-84
2022/01/23 11:36:39;;;;;;;21.05;12.80;;;;;;;;;;6231315;22;20338;-85
2022/01/23 11:39:14;;;;;;;21.70;14.77;;;;;;;;;;6219102;22;20027;-85
2022/01/23 11:56:24;;;;;;;8.23;7.43;;;;;;;;;;6270865;22;20035;-85
2022/01/23 11:58:52;;;;;;;6.95;5.60;;;;;;;;;;6243578;22;20023;-86
2022/01/23 12:01:19;;;;;;;6.72;6.07;;;;;;;;;;6242083;22;20073;-84
2022/01/23 12:04:08;;;;;;;6.45;5.75;;;;;;;;;;6217252;22;20411;-84
2022/01/23 12:06:39;;;;;;;6.32;5.72;;;;;;;;;;6242391;22;20019;-84
2022/01/23 12:09:11;;;;;;;6.97;6.10;;;;;;;;;;6243968;22;20090;-84
2022/01/23 12:11:46;;;;;;;8.70;6.10;;;;;;;;;;6265950;22;20019;-84
2022/01/23 12:16:58;;;;;;;10.50;7.90;;;;;;;;;;6269789;22;20384;-85
2022/01/23 12:19:50;;;;;;;10.43;6.80;;;;;;;;;;6265958;22;20012;-86
2022/01/23 12:22:39;;;;;;;9.68;7.10;;;;;;;;;;6206367;22;20449;-86
2022/01/23 12:25:09;;;;;;;7.25;6.47;;;;;;;;;;6221098;22;20020;-86
2022/01/23 12:27:37;;;;;;;7.90;5.97;;;;;;;;;;6218354;22;20368;-87
2022/01/23 12:30:15;;;;;;;10.63;6.97;;;;;;;;;;6170107;22;20016;-87
2022/01/23 12:32:40;;;;;;;7.15;5.63;;;;;;;;;;6210389;22;20044;-86
2022/01/23 12:35:10;;;;;;;6.03;5.32;;;;;;;;;;6242033;22;20296;-86
2022/01/23 12:38:10;;;;;;;4.63;4.13;;;;;;;;;;6173259;22;20027;-86
2022/01/23 12:40:43;;;;;;;3.85;3.42;;;;;;;;;;6203066;22;20019;-86
2022/01/23 12:43:11;;;;;;;3.35;3.05;;;;;;;;;;6217937;22;20015;-86
2022/01/23 12:45:56;;;;;;;6.20;3.67;;;;;;;;;;6216539;22;20030;-85
2022/01/23 12:48:25;;;;;;;3.20;2.95;;;;;;;;;;6217691;22;20031;-86
2022/01/23 12:50:52;;;;;;;3.20;2.90;;;;;;;;;;6216204;22;20024;-86
2022/01/23 12:53:20;;;;;;;3.10;2.80;;;;;;;;;;6183135;23;20053;-86
2022/01/23 12:56:10;;;;;;;4.43;2.83;;;;;;;;;;6201932;22;20038;-86
2022/01/23 12:58:37;;;;;;;4.18;3.53;;;;;;;;;;6241868;22;20043;-87
2022/01/23 13:01:23;;;;;;;4.55;3.67;;;;;;;;;;6217187;22;20024;-87
2022/01/23 13:04:01;;;;;;;3.50;3.20;;;;;;;;;;6225984;22;20083;-86
2022/01/23 13:06:33;;;;;;;4.22;3.45;;;;;;;;;;6203265;22;20039;-86
2022/01/23 13:09:23;;;;;;;4.55;3.28;;;;;;;;;;6228970;22;20031;-86
2022/01/23 13:14:54;;;;;;;;;;;;;;;;;;6238154;22;20310;-85
2022/01/23 13:18:29;;;;;;;6.28;3.55;;;;;;;;;;6236147;22;19911;-88
2022/01/23 13:29:59;;;;;;;8.82;5.72;;;;;;;;;;6203582;22;20019;-86
2022/01/23 13:32:36;;;;;;;5.68;5.13;;;;;;;;;;6214786;22;20043;-86
2022/01/23 13:35:09;;;;;;;5.28;4.70;;;;;;;;;;6184189;22;20027;-86
2022/01/23 13:37:54;;;;;;;;;;;;;;;;;;;;;
2022/01/23 13:41:10;;;;;;;4.55;4.15;;;;;;;;;;6229720;22;20075;-86
2022/01/23 13:57:53;;;;;;;7.10;3.90;;;;;;;;;;6209216;22;20100;-86
2022/01/23 14:00:25;;;;;;;6.95;4.15;;;;;;;;;;6188186;22;20039;-86
2022/01/23 14:02:55;;;;;;;6.13;4.45;;;;;;;;;;6192374;22;20039;-86
2022/01/23 14:05:28;;;;;;;4.75;3.53;;;;;;;;;;6217432;22;20334;-85
2022/01/23 14:08:08;;;;;;;4.15;3.25;;;;;;;;;;6221150;22;20094;-85
2022/01/23 14:10:38;;;;;;;4.15;3.75;;;;;;;;;;6214587;22;20396;-86
2022/01/23 14:13:37;;;;;;;4.97;3.88;;;;;;;;;;6208152;22;20008;-86
2022/01/23 14:16:03;;;;;;;6.97;4.15;;;;;;;;;;6177270;22;20016;-86
2022/01/23 14:18:31;;;;;;;4.60;4.20;;;;;;;;;;6193221;22;20020;-86
2022/01/23 14:21:05;;;;;;;4.68;3.88;;;;;;;;;;6214027;22;20039;-86
2022/01/23 14:24:00;;;;;;;6.25;3.42;;;;;;;;;;6203845;22;20016;-86
2022/01/23 14:27:17;;;;;;;6.00;3.63;;;;;;;;;;6134687;22;20027;-87
2022/01/23 14:30:27;;;;;;;6.10;3.88;;;;;;;;;;6212832;22;20020;-86
2022/01/23 14:33:07;;;;;;;4.32;3.85;;;;;;;;;;6169765;22;20040;-86
2022/01/23 14:35:38;;;;;;;4.53;3.78;;;;;;;;;;6194002;22;20027;-86
2022/01/23 14:38:31;;;;;;;5.25;3.80;;;;;;;;;;6191703;22;20042;-86
2022/01/23 14:41:03;;;;;;;4.53;4.03;;;;;;;;;;6183162;22;20027;-86
2022/01/23 14:43:50;;;;;;;6.72;4.70;;;;;;;;;;6206854;22;20038;-86
2022/01/23 14:46:16;;;;;;;5.70;4.45;;;;;;;;;;6207187;22;20074;-86
2022/01/23 14:48:59;;;;;;;4.78;3.53;;;;;;;;;;6196567;22;20020;-86
2022/01/23 14:51:29;;;;;;;4.43;4.03;;;;;;;;;;6252591;22;20077;-86
2022/01/23 14:54:15;;;;;;;5.43;4.50;;;;;;;;;;6208697;22;20095;-86
2022/01/23 14:57:13;;;;;;;4.35;3.95;;;;;;;;;;6108701;23;20016;-86
2022/01/23 14:59:45;;;;;;;5.00;3.70;;;;;;;;;;6119355;22;20020;-86
2022/01/23 15:02:13;;;;;;;6.63;4.50;;;;;;;;;;6160761;22;20028;-86
2022/01/23 15:05:23;;;;;;;5.72;4.90;;;;;;;;;;6232732;22;20016;-87
2022/01/23 15:08:55;;;;;;;6.40;5.20;;;;;;;;;;6107058;23;20024;-87
2022/01/23 15:15:25;;;;;;;;;;;;;;;;;;;;;
2022/01/23 15:21:55;;;;;;;7.38;4.75;;;;;;;;;;5965553;23;20211;-86
2022/01/23 15:28:20;;;;;;;6.68;5.82;;;;;;;;;;5956014;24;20023;-86
2022/01/23 15:31:24;;;;;;;7.18;5.88;;;;;;;;;;5935254;23;20208;-86
2022/01/23 15:34:15;;;;;;;7.80;6.88;;;;;;;;;;5975412;23;20033;-86
2022/01/23 15:36:44;;;;;;;8.88;7.22;;;;;;;;;;6029215;23;20018;-85
2022/01/23 15:39:22;;;;;;;9.82;8.77;;;;;;;;;;6188831;22;20342;-85
2022/01/23 15:42:45;;;;;;;8.60;7.47;;;;;;;;;;6205210;22;20015;-86
2022/01/23 15:45:27;;;;;;;7.15;6.35;;;;;;;;;;6093464;23;20026;-86
2022/01/23 15:48:04;;;;;;;8.75;6.45;;;;;;;;;;6213939;22;20039;-86
2022/01/23 15:50:29;;;;;;;7.43;6.65;;;;;;;;;;6210999;22;20046;-86
2022/01/23 15:52:56;;;;;;;10.05;7.25;;;;;;;;;;6204883;22;20015;-87
2022/01/23 15:55:24;;;;;;;8.82;7.32;;;;;;;;;;6243724;22;20099;-86
2022/01/23 15:57:56;;;;;;;8.90;8.00;;;;;;;;;;6219206;22;20015;-87
2022/01/23 16:00:24;;;;;;;10.15;8.55;;;;;;;;;;6243885;22;20024;-86
2022/01/23 16:02:53;;;;;;;12.52;9.55;;;;;;;;;;6232667;22;20026;-86
2022/01/23 16:05:25;;;;;;;14.77;10.57;;;;;;;;;;6186537;22;20025;-86
2022/01/23 16:07:54;;;;;;;13.23;9.65;;;;;;;;;;6214333;22;20445;-86
2022/01/23 16:10:26;;;;;;;12.13;9.13;;;;;;;;;;6205692;22;20473;-86
2022/01/23 16:12:55;;;;;;;12.32;9.52;;;;;;;;;;6208200;22;20102;-86
2022/01/23 16:15:43;;;;;;;13.15;10.65;;;;;;;;;;6180372;22;20019;-86
2022/01/23 16:18:14;;;;;;;12.32;9.18;;;;;;;;;;6247626;22;20027;-86
2022/01/23 16:20:43;;;;;;;13.55;9.77;;;;;;;;;;6156628;22;20531;-86
2022/01/23 16:23:09;;;;;;;11.77;10.05;;;;;;;;;;6238697;22;20038;-86
2022/01/23 16:25:35;;;;;;;10.80;9.70;;;;;;;;;;6243181;22;20404;-86
2022/01/23 16:28:02;;;;;;;11.02;9.57;;;;;;;;;;6220780;22;20016;-86
2022/01/23 16:30:46;;;;;;;12.30;10.85;;;;;;;;;;6243254;22;20020;-86
2022/01/23 16:33:11;;;;;;;14.43;11.05;;;;;;;;;;6246086;22;20015;-85
2022/01/23 16:35:37;;;;;;;12.85;11.48;;;;;;;;;;6201926;22;20114;-85
2022/01/23 16:38:03;;;;;;;13.73;11.55;;;;;;;;;;6209814;22;20272;-85
2022/01/23 16:40:29;;;;;;;19.23;15.93;;;;;;;;;;6219023;22;20038;-85
2022/01/23 16:42:55;;;;;;;20.30;16.17;;;;;;;;;;6216455;22;20016;-86
2022/01/23 16:45:21;;;;;;;21.08;16.17;;;;;;;;;;6221634;22;20024;-86
2022/01/23 16:47:48;;;;;;;20.60;14.48;;;;;;;;;;6247104;22;20031;-85
2022/01/23 16:50:16;;;;;;;16.25;13.38;;;;;;;;;;6246945;22;20063;-85
2022/01/23 16:52:42;;;;;;;16.52;13.45;;;;;;;;;;6202978;22;20754;-85
2022/01/23 16:55:07;;;;;;;16.77;14.13;;;;;;;;;;6245328;22;20012;-85
2022/01/23 16:57:33;;;;;;;15.73;13.93;;;;;;;;;;6217563;22;20063;-85
2022/01/23 16:59:59;;;;;;;17.25;13.05;;;;;;;;;;6212273;22;20015;-85
2022/01/23 17:02:25;;;;;;;18.15;12.57;;;;;;;;;;6216726;22;20069;-86
2022/01/23 17:04:53;;;;;;;14.55;12.38;;;;;;;;;;6216690;22;20077;-86
2022/01/23 17:07:18;;;;;;;19.58;12.73;;;;;;;;;;6220590;22;20395;-85
2022/01/23 17:09:44;;;;;;;15.70;13.23;;;;;;;;;;6241764;22;20085;-85
2022/01/23 17:12:12;;;;;;;14.35;11.32;;;;;;;;;;6237933;22;20065;-85
2022/01/23 17:14:41;;;;;;;15.98;11.30;;;;;;;;;;6219205;22;20029;-87
2022/01/23 17:17:07;;;;;;;16.05;11.57;;;;;;;;;;6214931;22;20453;-85
2022/01/23 17:19:33;;;;;;;13.23;11.82;;;;;;;;;;6221289;22;20051;-87
2022/01/23 17:21:58;;;;;;;12.93;11.15;;;;;;;;;;6220682;22;20046;-86
2022/01/23 17:24:24;;;;;;;15.52;11.93;;;;;;;;;;6219822;22;20483;-86
2022/01/23 17:26:50;;;;;;;9.40;7.93;;;;;;;;;;6219272;22;20027;-87
2022/01/23 17:29:16;;;;;;;9.52;7.43;;;;;;;;;;6220678;22;20069;-87
2022/01/23 17:31:42;;;;;;;8.40;6.82;;;;;;;;;;6229958;22;20410;-88
2022/01/23 17:34:22;;;;;;;6.57;5.78;;;;;;;;;;6200328;22;20047;-87
2022/01/23 17:36:54;;;;;;;6.10;5.25;;;;;;;;;;6187788;22;20019;-88
2022/01/23 17:39:20;;;;;;;7.65;6.85;;;;;;;;;;6195084;22;20039;-87
2022/01/23 17:41:46;;;;;;;8.18;6.90;;;;;;;;;;6219433;22;20014;-86
2022/01/23 17:44:11;;;;;;;7.00;6.13;;;;;;;;;;6220959;22;20485;-86
2022/01/23 17:46:39;;;;;;;6.20;5.10;;;;;;;;;;6214049;22;20093;-86
2022/01/23 17:49:08;;;;;;;7.03;5.93;;;;;;;;;;6221125;22;20043;-86
2022/01/23 17:51:37;;;;;;;6.60;5.32;;;;;;;;;;6202771;22;20031;-88
2022/01/23 17:54:03;;;;;;;8.07;5.82;;;;;;;;;;6243645;22;20043;-87
2022/01/23 17:56:29;;;;;;;8.45;6.18;;;;;;;;;;6207930;22;20024;-87
2022/01/23 17:58:56;;;;;;;6.95;5.80;;;;;;;;;;6222755;22;20020;-87
2022/01/23 18:01:23;;;;;;;7.10;5.85;;;;;;;;;;6218112;22;20051;-87
2022/01/23 18:03:51;;;;;;;8.57;7.53;;;;;;;;;;6223257;22;20051;-87
2022/01/23 18:06:28;;;;;;;10.75;9.73;;;;;;;;;;6204566;22;20027;-87
2022/01/23 18:08:55;;;;;;;24.05;21.60;;;;;;;;;;6210216;22;20027;-87
2022/01/23 18:11:37;;;;;;;17.92;15.98;;;;;;;;;;6212484;22;20020;-87
2022/01/23 18:14:07;;;;;;;13.43;12.13;;;;;;;;;;6206416;22;20031;-86
2022/01/23 18:16:33;;;;;;;12.57;11.02;;;;;;;;;;6216117;22;20083;-86
2022/01/23 18:18:58;;;;;;;15.00;12.38;;;;;;;;;;6221669;22;20024;-86
2022/01/23 18:21:24;;;;;;;13.43;10.15;;;;;;;;;;6219610;22;20023;-86
2022/01/23 18:23:50;;;;;;;11.85;10.38;;;;;;;;;;6219956;22;20035;-86
2022/01/23 18:26:17;;;;;;;10.25;9.15;;;;;;;;;;6245542;22;20053;-85
2022/01/23 18:28:42;;;;;;;11.90;9.90;;;;;;;;;;6220170;22;20008;-85